Latest Weather Observations for Territory Grape Farm

IDD60801

Issued at 8:05 pm CST Tuesday 21 October 2014 (issued every 30 minutes, with the page automatically refreshed every 10 minutes)

About weather observations | Map of weather stations | Latest weather observations for NT | Other Formats
Station Details ID: 015643 Name: TERRITORY GRAPE FARM Lat: -22.45 Lon: 133.64 Height: 565.6 m
Data from the previous 72 hours. | See also: Recent months at Territory Grape Farm
Date/Time
CST
Temp
°C
App
Temp
°C
Dew
Point
Rel
Hum
%
Delta-T
°C
Wind Press
QNH
hPa
Press
MSL
hPa
Rain
since 9 am
mm
Dir
 
Spd
km/h
Gust
km/h
Spd
kts
Gust
kts
21/08:00pm 28.3 24.4 -4.9 11 14.7 E 7 11 4 6 1017.5 1014.3 0.0
21/07:30pm 30.3 26.0 -4.7 10 15.9 E 9 15 5 8 1017.2 1014.0 0.0
21/07:00pm 31.5 27.2 -5.2 9 16.7 E 9 11 5 6 1016.8 1013.6 0.0
21/06:30pm 34.1 29.0 -4.8 8 18.1 E 13 15 7 8 1016.5 1013.2 0.0
21/06:00pm 35.4 31.0 -5.6 7 19.0 ESE 9 19 5 10 1016.3 1013.0 0.0
21/05:30pm 36.2 30.7 -5.0 7 19.4 E 15 26 8 14 1015.9 1012.7 0.0
21/05:00pm 36.5 31.8 -4.8 7 19.6 E 11 20 6 11 1015.8 1012.6 0.0
21/04:30pm 36.3 32.6 -5.0 7 19.5 S 6 11 3 6 1015.8 1012.6 0.0
21/04:00pm 37.0 32.4 -4.4 7 19.8 E 11 22 6 12 1016.0 1012.8 0.0
21/03:30pm 36.4 29.6 -4.9 7 19.5 SE 22 32 12 17 1016.3 1013.0 0.0
21/03:00pm 36.9 31.3 -2.7 8 19.4 E 17 24 9 13 1016.4 1013.1 0.0
21/02:30pm 36.6 32.3 -4.7 7 19.6 SSW 9 13 5 7 1016.7 1013.5 0.0
21/02:00pm 36.0 30.5 -5.2 7 19.3 ENE 15 26 8 14 1017.2 1014.0 0.0
21/01:30pm 36.0 29.0 -3.4 8 19.0 ESE 24 32 13 17 1017.6 1014.4 0.0
21/01:00pm 34.9 29.5 -4.2 8 18.5 ESE 15 26 8 14 1018.3 1015.1 0.0
21/12:30pm 35.5 31.9 -2.2 9 18.5 NE 7 9 4 5 1018.8 1015.6 0.0
21/12:00pm 34.5 29.3 -2.9 9 18.0 ENE 15 28 8 15 1019.4 1016.2 0.0
21/11:30am 34.3 29.1 -3.1 9 17.9 E 15 26 8 14 1019.8 1016.7 0.0
21/11:00am 34.1 28.5 -3.2 9 17.8 ENE 17 24 9 13 1020.3 1017.1 0.0
21/10:30am 33.4 27.1 -3.7 9 17.5 E 20 32 11 17 1020.5 1017.3 0.0
21/10:00am 32.9 26.8 -2.7 10 17.0 NE 20 28 11 15 1020.7 1017.5 0.0
21/09:30am 32.1 25.7 -2.0 11 16.4 NE 22 33 12 18 1020.6 1017.4 0.0
21/09:00am 30.9 24.7 -3.0 11 15.9 NE 20 28 11 15 1020.6 1017.4 0.0
21/08:30am 30.0 24.2 -1.4 13 15.0 ENE 19 26 10 14 1020.5 1017.3 0.0
21/08:00am 27.3 21.3 -1.6 15 13.5 ENE 20 28 11 15 1020.5 1017.3 0.0
21/07:30am 24.8 20.4 -2.7 16 12.3 ENE 11 15 6 8 1020.3 1017.1 0.0
21/07:00am 21.9 18.0 -1.4 21 10.5 E 9 13 5 7 1019.7 1016.5 0.0
21/06:30am 17.9 14.5 -2.4 25 8.6 ESE 6 9 3 5 1019.4 1016.2 0.0
21/06:00am 16.6 12.2 -2.5 27 8.0 ESE 11 13 6 7 1019.0 1015.8 0.0
21/05:30am 15.2 11.2 -2.2 30 7.2 ESE 9 11 5 6 1018.7 1015.5 0.0
21/05:00am 15.7 12.0 -3.2 27 7.8 ESE 7 9 4 5 1018.4 1015.2 0.0
21/04:30am 17.9 13.8 -2.9 24 8.8 SE 9 11 5 6 1018.3 1015.1 0.0
21/04:00am 18.6 14.5 -2.9 23 9.1 SE 9 11 5 6 1017.8 1014.6 0.0
21/03:30am 19.0 15.3 -3.2 22 9.4 SSE 7 9 4 5 1017.7 1014.5 0.0
21/03:00am 19.3 15.8 -2.9 22 9.5 SE 6 7 3 4 1017.7 1014.5 0.0
21/02:30am 19.6 16.1 -2.7 22 9.6 SE 6 7 3 4 1017.7 1014.5 0.0
21/02:00am 19.7 16.3 -2.0 23 9.5 E 6 7 3 4 1017.8 1014.6 0.0
21/01:30am 20.4 16.3 -3.3 20 10.1 NE 9 9 5 5 1017.9 1014.7 0.0
21/01:00am 19.6 15.6 -2.1 23 9.4 E 9 11 5 6 1018.4 1015.2 0.0
21/12:30am 20.1 16.1 -2.3 22 9.7 E 9 9 5 5 1018.6 1015.4 0.0
21/12:00am 20.9 17.3 -2.2 21 10.1 E 7 9 4 5 1018.8 1015.6 0.0
 
Date/Time
CST
Temp
°C
App
Temp
°C
Dew
Point
Rel
Hum
%
Delta-T
°C
Wind Press
QNH
hPa
Press
MSL
hPa
Rain
since 9 am
mm
Dir
 
Spd
km/h
Gust
km/h
Spd
kts
Gust
kts
20/11:30pm 21.9 17.7 -3.5 18 11.0 ENE 9 9 5 5 1018.9 1015.7 0.0
20/11:00pm 23.4 19.6 -3.8 16 11.8 NE 7 9 4 5 1018.8 1015.6 0.0
20/10:30pm 23.3 19.5 -3.9 16 11.8 NE 7 9 4 5 1018.9 1015.7 0.0
20/10:00pm 24.6 20.8 -3.7 15 12.5 NE 7 9 4 5 1018.9 1015.7 0.0
20/09:30pm 24.5 20.4 -2.9 16 12.2 ENE 9 11 5 6 1018.8 1015.6 0.0
20/09:00pm 24.7 21.0 -2.8 16 12.3 E 7 9 4 5 1018.5 1015.3 0.0
20/08:30pm 25.5 21.4 -3.0 15 12.8 E 9 9 5 5 1018.2 1014.9 0.0
20/08:00pm 26.5 22.3 -4.1 13 13.6 E 9 9 5 5 1017.7 1014.5 0.0
20/07:30pm 28.9 24.5 -5.7 10 15.2 E 9 11 5 6 1017.4 1014.2 0.0
20/07:00pm 31.0 26.6 -5.5 9 16.4 E 9 13 5 7 1017.0 1013.8 0.0
20/06:30pm 32.7 28.3 -5.8 8 17.4 E 9 17 5 9 1016.6 1013.3 0.0
20/06:00pm 34.2 28.8 -4.7 8 18.2 E 15 24 8 13 1016.1 1012.9 0.0
20/05:30pm 34.8 28.3 -6.0 7 18.7 NE 20 24 11 13 1015.7 1012.5 0.0
20/05:00pm 34.9 29.3 -6.0 7 18.8 ESE 15 20 8 11 1015.7 1012.5 0.0
20/04:30pm 35.2 31.2 -5.7 7 18.9 NNE 7 17 4 9 1015.8 1012.6 0.0
20/04:00pm 35.0 30.2 -5.9 7 18.8 NNE 11 24 6 13 1015.9 1012.7 0.0
20/03:30pm 35.9 31.6 -5.2 7 19.3 NW 9 24 5 13 1016.1 1012.9 0.0
20/03:00pm 35.7 31.2 -3.6 8 18.9 NNE 11 20 6 11 1016.6 1013.3 0.0
20/02:30pm 35.0 30.8 -4.1 8 18.5 E 9 17 5 9 1017.0 1013.8 0.0
20/02:00pm 34.5 30.4 -2.9 9 18.0 NNW 9 17 5 9 1017.4 1014.2 0.0
20/01:30pm 34.9 28.6 -4.2 8 18.5 ENE 20 28 11 15 1018.2 1014.9 0.0
20/01:00pm 34.9 28.8 -4.2 8 18.5 ENE 19 26 10 14 1018.7 1015.5 0.0
20/12:30pm 34.3 30.2 -3.1 9 17.9 NE 9 19 5 10 1019.2 1016.0 0.0
20/12:00pm 33.8 27.7 -3.5 9 17.7 ENE 19 32 10 17 1019.8 1016.7 0.0
20/11:30am 33.6 28.5 -2.2 10 17.3 NNE 15 22 8 12 1020.2 1017.0 0.0
20/11:00am 33.4 27.5 -1.0 11 17.0 NNE 20 30 11 16 1020.5 1017.3 0.0
20/10:30am 33.2 26.8 1.1 13 16.3 NNE 24 33 13 18 1020.7 1017.5 0.0
20/10:00am 32.2 25.3 0.3 13 16.0 NE 26 33 14 18 1020.9 1017.7 0.0
20/09:30am 31.8 25.8 1.0 14 15.5 NE 22 33 12 18 1020.9 1017.7 0.0
20/09:00am 29.9 23.3 -0.5 14 14.7 NE 24 35 13 19 1021.1 1017.9 0.0
20/08:30am 29.0 23.6 -1.2 14 14.4 NE 17 24 9 13 1020.9 1017.7 0.0
20/08:00am 26.9 21.8 -1.9 15 13.4 ENE 15 24 8 13 1020.6 1017.4 0.0
20/07:30am 24.5 19.2 -3.8 15 12.4 E 15 20 8 11 1020.4 1017.2 0.0
20/07:00am 21.6 16.9 -5.3 16 11.2 E 11 15 6 8 1020.1 1016.9 0.0
20/06:30am 17.4 12.9 -7.1 18 9.4 E 9 13 5 7 1019.5 1016.3 0.0
20/06:00am 14.7 9.8 -7.4 21 8.2 E 11 13 6 7 1019.1 1015.9 0.0
20/05:30am 15.1 10.5 -7.7 20 8.4 ESE 9 11 5 6 1018.8 1015.6 0.0
20/05:00am 16.2 11.6 -8.1 18 9.0 ESE 9 9 5 5 1018.6 1015.4 0.0
20/04:30am 17.4 13.2 -7.9 17 9.5 SE 7 9 4 5 1018.2 1014.9 0.0
20/04:00am 17.9 13.7 -8.2 16 9.9 ESE 7 7 4 4 1017.8 1014.6 0.0
20/03:30am 17.3 13.2 -8.7 16 9.6 ESE 6 7 3 4 1017.5 1014.3 0.0
20/03:00am 17.2 13.0 -8.0 17 9.5 ESE 7 9 4 5 1017.3 1014.1 0.0
20/02:30am 18.1 13.4 -8.9 15 10.1 E 9 11 5 6 1017.4 1014.2 0.0
20/02:00am 18.5 13.3 -10.4 13 10.5 E 11 13 6 7 1017.7 1014.5 0.0
20/01:30am 18.3 13.6 -9.6 14 10.3 E 9 11 5 6 1018.0 1014.8 0.0
20/01:00am 19.1 14.6 -12.0 11 11.0 E 7 7 4 4 1018.2 1014.9 0.0
20/12:30am 19.0 14.6 -10.0 13 10.7 E 7 9 4 5 1018.5 1015.3 0.0
20/12:00am 18.2 14.2 -12.7 11 10.7 E 4 6 2 3 1018.4 1015.2 0.0
 
Date/Time
CST
Temp
°C
App
Temp
°C
Dew
Point
Rel
Hum
%
Delta-T
°C
Wind Press
QNH
hPa
Press
MSL
hPa
Rain
since 9 am
mm
Dir
 
Spd
km/h
Gust
km/h
Spd
kts
Gust
kts
19/11:30pm 20.9 16.6 -11.8 10 11.9 E 6 7 3 4 1018.5 1015.3 0.0
19/11:00pm 21.4 16.9 -11.4 10 12.1 E 7 9 4 5 1018.6 1015.4 0.0
19/10:30pm 22.6 18.1 -11.8 9 12.7 E 7 9 4 5 1018.6 1015.4 0.0
19/10:00pm 22.4 17.9 -12.0 9 12.7 E 7 7 4 4 1018.5 1015.3 0.0
19/09:30pm 25.2 19.5 -13.0 7 14.2 NE 13 13 7 7 1018.3 1015.1 0.0
19/09:00pm 24.9 19.9 -13.2 7 14.1 NE 9 11 5 6 1017.9 1014.7 0.0
19/08:30pm 24.9 20.4 -11.6 8 13.9 NE 7 9 4 5 1017.8 1014.6 0.0
19/08:00pm 25.2 20.7 -11.4 8 14.1 E 7 7 4 4 1017.6 1014.4 0.0
19/07:30pm 25.9 22.1 -9.4 9 14.1 NNE 4 6 2 3 1017.3 1014.1 0.0
19/07:00pm 29.6 25.1 -14.0 5 16.7 N 6 6 3 3 1016.8 1013.6 0.0
19/06:30pm 32.7 29.1 -11.8 5 18.3 NE 2 4 1 2 1016.5 1013.2 0.0
19/06:00pm 34.0 29.4 -13.7 4 19.2 NE 7 11 4 6 1016.4 1013.1 0.0
19/05:30pm 34.7 29.7 -13.2 4 19.6 NNE 9 13 5 7 1016.1 1012.9 0.0
19/05:00pm 34.9 29.2 -13.0 4 19.7 NNE 13 22 7 12 1015.9 1012.7 0.0
19/04:30pm 35.0 29.3 -13.0 4 19.7 E 13 22 7 12 1015.9 1012.7 0.0
19/04:00pm 34.9 30.5 -13.0 4 19.7 E 6 11 3 6 1015.9 1012.7 0.0
19/03:30pm 35.8 31.3 -12.4 4 20.1 ESE 7 20 4 11 1016.3 1013.0 0.0
19/03:00pm 34.9 30.3 -13.0 4 19.7 ENE 7 19 4 10 1016.3 1013.0 0.0
19/02:30pm 35.0 30.0 -13.0 4 19.7 N 9 19 5 10 1016.6 1013.3 0.0
19/02:00pm 34.6 28.9 -13.2 4 19.5 ENE 13 20 7 11 1017.0 1013.8 0.0
19/01:30pm 34.2 29.2 -13.5 4 19.3 NE 9 28 5 15 1017.4 1014.2 0.0
19/01:00pm 34.1 29.3 -10.8 5 19.0 ENE 9 11 5 6 1017.8 1014.6 0.0
19/12:30pm 33.8 28.4 -13.8 4 19.1 N 11 24 6 13 1018.5 1015.3 0.0
19/12:00pm 33.0 28.1 -11.6 5 18.4 N 9 20 5 11 1018.9 1015.7 0.0
19/11:30am 33.1 28.2 -11.5 5 18.4 ENE 9 20 5 11 1019.3 1016.1 0.0
19/11:00am 32.3 27.4 -12.1 5 18.1 E 9 19 5 10 1019.7 1016.5 0.0
19/10:30am 32.6 26.2 -11.9 5 18.2 NNE 17 22 9 12 1020.4 1017.2 0.0
19/10:00am 31.4 24.6 -12.7 5 17.6 ENE 19 26 10 14 1020.6 1017.4 0.0
19/09:30am 30.5 23.6 -13.3 5 17.1 ENE 19 28 10 15 1020.8 1017.6 0.0
19/09:00am 29.2 22.2 -12.0 6 16.3 ENE 20 30 11 16 1020.8 1017.6 0.0
19/08:30am 27.2 20.8 -11.5 7 15.1 ENE 17 24 9 13 1020.9 1017.7 0.0
19/08:00am 25.4 19.4 -11.2 8 14.1 E 15 22 8 12 1020.6 1017.4 0.0
19/07:30am 22.2 16.1 -12.1 9 12.6 E 15 22 8 12 1020.3 1017.1 0.0
19/07:00am 19.0 13.7 -12.1 11 11.0 ESE 11 13 6 7 1020.1 1016.9 0.0
19/06:30am 14.6 10.1 -11.7 15 8.8 SE 7 9 4 5 1019.8 1016.7 0.0
19/06:00am 11.3 6.9 -13.6 16 7.7 SE 6 7 3 4 1019.6 1016.4 0.0
19/05:30am 12.1 7.8 -12.2 17 7.8 ESE 6 7 3 4 1019.2 1016.0 0.0
19/05:00am 12.6 8.2 -13.3 15 8.2 ESE 6 7 3 4 1019.0 1015.8 0.0
19/04:30am 14.2 9.3 -12.0 15 8.7 SE 9 9 5 5 1018.8 1015.6 0.0
19/04:00am 14.3 9.7 -13.7 13 9.0 SE 7 9 4 5 1018.7 1015.5 0.0
19/03:30am 14.8 10.1 -14.3 12 9.3 SSE 7 9 4 5 1018.6 1015.4 0.0
19/03:00am 14.6 9.7 -12.6 14 9.0 SE 9 11 5 6 1018.4 1015.2 0.0
19/02:30am 15.4 10.0 -13.8 12 9.5 SE 11 11 6 6 1018.4 1015.2 0.0
19/02:00am 16.7 11.7 -12.8 12 10.0 SE 9 11 5 6 1018.6 1015.4 0.0
19/01:30am 17.0 11.7 -12.6 12 10.1 E 11 13 6 7 1018.7 1015.5 0.0
19/01:00am 19.4 14.0 -14.2 9 11.4 E 11 13 6 7 1018.8 1015.6 0.0
19/12:30am 19.5 13.7 -14.2 9 11.5 E 13 15 7 8 1018.8 1015.6 0.0
19/12:00am 17.7 12.3 -14.3 10 10.6 E 11 13 6 7 1019.1 1015.9 0.0
 
Date/Time
CST
Temp
°C
App
Temp
°C
Dew
Point
Rel
Hum
%
Delta-T
°C
Wind Press
QNH
hPa
Press
MSL
hPa
Rain
since 9 am
mm
Dir
 
Spd
km/h
Gust
km/h
Spd
kts
Gust
kts
18/11:30pm 17.5 12.1 -13.2 11 10.4 E 11 13 6 7 1019.1 1015.9 0.0
18/11:00pm 19.1 14.0 -14.5 9 11.3 ENE 9 11 5 6 1019.2 1016.0 0.0
18/10:30pm 20.9 15.8 -14.5 8 12.2 ENE 9 11 5 6 1019.2 1016.0 0.0
18/10:00pm 21.8 16.4 -13.9 8 12.6 ENE 11 13 6 7 1019.1 1015.9 0.0
18/09:30pm 20.2 14.8 -13.6 9 11.7 E 11 11 6 6 1019.1 1015.9 0.0
18/09:00pm 21.0 15.7 -11.7 10 11.9 E 11 11 6 6 1019.0 1015.8 0.0
18/08:30pm 22.5 17.5 -13.4 8 12.9 E 9 11 5 6 1018.8 1015.6 0.0

Other Formats:

Comma delimited format used in spreadsheet applications
http://www.bom.gov.au/fwo/IDD60801/IDD60801.94328.axf

JavaScript Object Notation format (JSON) in row-major order
http://www.bom.gov.au/fwo/IDD60801/IDD60801.94328.json